createdAt,value
2018-11-02T00:02:24.927Z,22.13
2018-11-02T00:04:55.882Z,22.15
2018-11-02T00:07:26.011Z,20.65
2018-11-02T00:09:56.096Z,20.77
2018-11-02T00:12:25.937Z,21.65
2018-11-02T00:14:55.971Z,22.07
2018-11-02T00:17:27.102Z,21.68
2018-11-02T00:19:58.760Z,21.17
2018-11-02T00:22:29.652Z,21.60
2018-11-02T00:25:00.640Z,19.62
2018-11-02T00:27:31.748Z,19.27
2018-11-02T00:30:02.411Z,19.20
2018-11-02T00:32:33.505Z,12.85
2018-11-02T00:35:04.972Z,7.50
2018-11-02T00:37:37.147Z,24.45
2018-11-02T00:40:09.816Z,21.90
2018-11-02T00:42:41.151Z,17.23
2018-11-02T00:45:13.637Z,23.52
2018-11-02T00:47:44.411Z,23.10
2018-11-02T00:50:16.209Z,22.22
2018-11-02T00:52:46.694Z,14.35
2018-11-02T00:55:18.021Z,23.20
2018-11-02T00:57:48.514Z,22.90
2018-11-02T01:00:19.405Z,22.67
2018-11-02T01:02:50.903Z,23.57
2018-11-02T01:05:21.737Z,22.52
2018-11-02T01:07:54.011Z,22.82
2018-11-02T01:10:24.576Z,21.68
2018-11-02T01:12:56.263Z,24.07
2018-11-02T01:15:27.655Z,19.15
2018-11-02T01:17:58.983Z,21.75
2018-11-02T01:20:29.761Z,25.57
2018-11-02T01:22:59.746Z,26.85
2018-11-02T01:25:30.529Z,8.80
2018-11-02T01:28:02.641Z,21.97
2018-11-02T01:30:35.431Z,25.23
2018-11-02T01:33:06.265Z,25.25
2018-11-02T01:35:37.116Z,27.25
2018-11-02T01:38:07.803Z,25.88
2018-11-02T01:40:38.665Z,28.47
2018-11-02T01:43:12.092Z,22.95
2018-11-02T01:45:43.517Z,25.77
2018-11-02T01:48:14.463Z,19.07
2018-11-02T01:50:46.683Z,28.40
2018-11-02T01:53:17.557Z,28.38
2018-11-02T01:58:26.293Z,27.10
2018-11-02T02:00:58.285Z,28.17
2018-11-02T02:03:29.813Z,27.73
2018-11-02T02:06:02.184Z,26.85
2018-11-02T02:08:33.985Z,28.77
2018-11-02T02:11:06.317Z,27.45
2018-11-02T02:13:37.084Z,29.02
2018-11-02T02:16:09.204Z,29.55
2018-11-02T02:18:39.193Z,28.38
2018-11-02T02:21:10.119Z,26.85
2018-11-02T02:23:41.624Z,27.93
2018-11-02T02:26:11.941Z,27.67
2018-11-02T02:28:43.097Z,26.10
2018-11-02T02:31:14.327Z,28.02
2018-11-02T02:33:45.878Z,25.62
2018-11-02T02:36:16.959Z,25.90
2018-11-02T02:38:47.514Z,27.32
2018-11-02T02:41:18.287Z,26.20
2018-11-02T02:43:49.930Z,24.82
2018-11-02T02:46:21.278Z,24.52
2018-11-02T02:48:52.114Z,14.45
2018-11-02T02:51:24.516Z,26.00
2018-11-02T02:53:54.196Z,23.07
2018-11-02T02:56:24.934Z,22.50
2018-11-02T02:58:55.927Z,25.37
2018-11-02T03:01:26.211Z,25.80
2018-11-02T03:03:56.354Z,24.95
2018-11-02T03:06:26.559Z,24.90
2018-11-02T03:08:58.022Z,24.12
2018-11-02T03:11:37.630Z,23.67
2018-11-02T03:14:10.041Z,23.32
2018-11-02T03:16:41.961Z,24.23
2018-11-02T03:19:14.230Z,23.50
2018-11-02T03:21:47.215Z,22.55
2018-11-02T03:24:27.514Z,18.80
2018-11-02T03:27:00.228Z,20.72
2018-11-02T03:29:31.405Z,21.00
2018-11-02T03:32:06.442Z,20.55
2018-11-02T03:34:38.929Z,18.67
2018-11-02T03:37:10.887Z,21.05
2018-11-02T03:39:43.680Z,21.23
2018-11-02T03:42:14.591Z,20.48
2018-11-02T03:44:44.913Z,20.23
2018-11-02T03:47:16.593Z,11.12
2018-11-02T03:49:48.348Z,22.37
2018-11-02T03:52:17.972Z,10.13
2018-11-02T03:54:48.047Z,12.03
2018-11-02T03:57:19.295Z,17.75
2018-11-02T03:59:49.311Z,6.53
2018-11-02T04:02:20.258Z,17.82
2018-11-02T04:04:57.783Z,14.13
2018-11-02T04:07:30.031Z,14.55
2018-11-02T04:10:03.469Z,20.12
2018-11-02T04:12:33.989Z,17.25
2018-11-02T04:15:05.693Z,18.30
2018-11-02T04:17:38.708Z,18.10
2018-11-02T04:20:09.824Z,18.00
2018-11-02T04:22:41.193Z,18.55
2018-11-02T04:25:12.480Z,12.20
2018-11-02T04:27:44.060Z,17.05
2018-11-02T04:30:15.665Z,17.67
2018-11-02T04:32:47.222Z,17.50
2018-11-02T04:35:17.868Z,18.10
2018-11-02T04:37:48.123Z,16.52
2018-11-02T04:40:20.003Z,11.83
2018-11-02T04:42:51.458Z,17.90
2018-11-02T04:45:26.797Z,17.48
2018-11-02T04:47:58.751Z,13.13
2018-11-02T04:50:29.472Z,16.27
2018-11-02T04:53:00.659Z,16.10
2018-11-02T04:55:31.307Z,16.65
2018-11-02T04:58:01.167Z,15.20
2018-11-02T05:00:31.798Z,15.15
2018-11-02T05:03:06.004Z,13.98
2018-11-02T05:05:38.740Z,15.63
2018-11-02T05:08:09.152Z,15.20
2018-11-02T05:10:42.338Z,16.48
2018-11-02T05:13:16.730Z,16.15
2018-11-02T05:15:48.319Z,16.20
2018-11-02T05:18:18.505Z,16.30
2018-11-02T05:20:49.351Z,9.20
2018-11-02T05:23:20.493Z,16.35
2018-11-02T05:25:51.765Z,16.00
2018-11-02T05:28:23.939Z,16.30
2018-11-02T05:30:55.986Z,13.22
2018-11-02T05:33:26.989Z,15.95
2018-11-02T05:35:59.580Z,15.63
2018-11-02T05:38:29.899Z,15.05
2018-11-02T05:41:01.248Z,16.12
2018-11-02T05:43:38.595Z,15.45
2018-11-02T05:46:11.720Z,15.18
2018-11-02T05:48:45.413Z,16.52
2018-11-02T05:51:19.956Z,15.75
2018-11-02T05:53:52.422Z,16.07
2018-11-02T05:59:12.171Z,15.75
2018-11-02T06:01:44.176Z,14.43
2018-11-02T06:04:15.652Z,15.15
2018-11-02T06:06:49.087Z,14.78
2018-11-02T06:09:23.574Z,14.55
2018-11-02T06:11:58.084Z,14.80
2018-11-02T06:14:38.757Z,14.80
2018-11-02T06:17:14.009Z,14.10
2018-11-02T06:19:50.984Z,14.07
2018-11-02T06:22:22.815Z,14.20
2018-11-02T06:24:54.665Z,15.25
2018-11-02T06:27:28.320Z,11.55
2018-11-02T06:30:00.263Z,15.70
2018-11-02T06:32:30.957Z,11.35
2018-11-02T06:35:01.614Z,8.35
2018-11-02T06:37:34.420Z,10.93
2018-11-02T06:40:06.573Z,12.30
2018-11-02T06:42:39.297Z,14.43
2018-11-02T06:45:13.957Z,14.50
2018-11-02T06:47:47.067Z,14.95
2018-11-02T06:50:18.266Z,13.10
2018-11-02T06:52:50.025Z,13.53
2018-11-02T06:55:23.214Z,9.85
2018-11-02T06:57:55.381Z,12.60
2018-11-02T07:00:26.477Z,27.00
2018-11-02T07:02:58.044Z,11.18
2018-11-02T07:05:29.009Z,14.47
2018-11-02T07:08:02.820Z,15.08
2018-11-02T07:10:35.456Z,11.73
2018-11-02T07:13:13.012Z,14.20
2018-11-02T07:15:51.065Z,15.03
2018-11-02T07:18:21.530Z,10.15
2018-11-02T07:20:53.555Z,15.43
2018-11-02T07:23:25.518Z,14.10
2018-11-02T07:25:57.237Z,14.33
2018-11-02T07:28:29.002Z,11.05
2018-11-02T07:31:00.654Z,8.48
2018-11-02T07:33:33.231Z,13.75
2018-11-02T07:36:07.993Z,14.15
2018-11-02T07:38:40.452Z,14.43
2018-11-02T07:41:12.596Z,15.20
2018-11-02T07:43:43.711Z,11.22
2018-11-02T07:46:14.784Z,14.30
2018-11-02T07:48:46.088Z,9.78
2018-11-02T07:51:17.271Z,13.90
2018-11-02T07:55:12.830Z,12.37
2018-11-02T07:57:44.276Z,10.38
2018-11-02T08:00:17.552Z,13.48
2018-11-02T08:02:51.775Z,14.00
2018-11-02T08:05:34.060Z,13.20
2018-11-02T08:08:08.600Z,11.63
2018-11-02T08:10:41.020Z,15.20
2018-11-02T08:13:12.932Z,10.78
2018-11-02T08:15:43.745Z,13.45
2018-11-02T08:18:15.001Z,10.32
2018-11-02T08:20:45.961Z,13.10
2018-11-02T08:23:17.761Z,13.60
2018-11-02T08:25:48.662Z,12.30
2018-11-02T08:28:20.466Z,11.28
2018-11-02T08:30:51.579Z,12.78
2018-11-02T08:33:24.060Z,10.72
2018-11-02T08:35:56.659Z,8.08
2018-11-02T08:38:27.767Z,11.40
2018-11-02T08:40:58.835Z,12.23
2018-11-02T08:43:30.837Z,6.62
2018-11-02T08:46:05.785Z,6.47
2018-11-02T08:48:47.889Z,8.78
2018-11-02T08:51:23.648Z,7.60
2018-11-02T08:53:55.866Z,13.43
2018-11-02T08:56:27.832Z,12.53
2018-11-02T08:59:30.209Z,10.48
2018-11-02T09:02:01.351Z,11.78
2018-11-02T09:04:31.687Z,10.50
2018-11-02T09:07:02.207Z,10.68
2018-11-02T09:09:32.487Z,10.75
2018-11-02T09:12:02.796Z,8.73
2018-11-02T09:17:11.778Z,13.05
2018-11-02T09:19:42.218Z,11.78
2018-11-02T09:22:12.390Z,9.33
2018-11-02T09:24:42.302Z,8.55
2018-11-02T09:27:12.782Z,9.38
2018-11-02T09:29:43.570Z,14.03
2018-11-02T09:32:14.113Z,11.40
2018-11-02T09:34:44.074Z,13.65
2018-11-02T09:37:14.788Z,10.45
2018-11-02T09:39:44.907Z,8.75
2018-11-02T09:42:15.173Z,13.72
2018-11-02T09:44:45.478Z,10.05
2018-11-02T09:47:15.718Z,10.53
2018-11-02T09:49:48.328Z,7.92
2018-11-02T09:52:20.857Z,9.10
2018-11-02T09:54:51.011Z,10.48
2018-11-02T09:57:22.416Z,8.85
2018-11-02T09:59:56.243Z,7.03
2018-11-02T10:02:27.965Z,7.10
2018-11-02T10:05:03.291Z,9.35
2018-11-02T10:07:39.701Z,5.62
2018-11-02T10:10:14.196Z,8.80
2018-11-02T10:12:43.957Z,8.88
2018-11-02T10:15:15.543Z,8.95
2018-11-02T10:17:45.800Z,6.58
2018-11-02T10:20:15.723Z,6.62
2018-11-02T10:22:46.147Z,7.05
2018-11-02T10:25:16.538Z,3.95
2018-11-02T10:27:46.613Z,3.62
2018-11-02T10:30:17.473Z,3.17
2018-11-02T10:32:51.868Z,4.25
2018-11-02T10:35:22.567Z,2.12
2018-11-02T10:37:53.549Z,4.55
2018-11-02T10:40:25.649Z,3.40
2018-11-02T10:43:01.770Z,2.60
2018-11-02T10:45:37.873Z,2.58
2018-11-02T10:48:09.315Z,2.92
2018-11-02T10:50:41.152Z,2.52
2018-11-02T10:53:12.791Z,2.17
2018-11-02T10:55:43.316Z,2.12
2018-11-02T10:58:14.269Z,2.05
2018-11-02T11:00:50.228Z,2.02
2018-11-02T11:03:21.299Z,1.45
2018-11-02T11:05:51.288Z,2.30
2018-11-02T11:09:13.281Z,2.33
2018-11-02T11:11:43.881Z,1.50
2018-11-02T11:14:14.098Z,1.90
2018-11-02T11:16:44.326Z,2.58
2018-11-02T11:19:14.956Z,1.85
2018-11-02T11:21:44.764Z,1.37
2018-11-02T11:24:16.016Z,3.05
2018-11-02T11:26:46.631Z,2.95
2018-11-02T11:29:19.554Z,3.17
2018-11-02T11:31:53.287Z,2.70
2018-11-02T11:34:25.043Z,1.90
2018-11-02T11:36:55.149Z,1.70
2018-11-02T11:39:28.288Z,2.20
2018-11-02T11:41:58.756Z,2.35
2018-11-02T11:44:42.059Z,1.92
2018-11-02T11:47:13.196Z,2.02
2018-11-02T11:49:44.382Z,1.47
2018-11-02T11:52:24.824Z,1.55
2018-11-02T11:54:57.062Z,1.45
2018-11-02T11:57:34.777Z,1.77
2018-11-02T12:00:06.901Z,1.10
2018-11-02T12:02:38.584Z,2.00
2018-11-02T12:20:09.159Z,1.22
2018-11-02T12:26:00.787Z,1.40
2018-11-02T12:28:40.307Z,1.40
2018-11-02T12:31:11.640Z,1.15
2018-11-02T12:39:42.423Z,1.15
2018-11-02T12:42:41.111Z,1.05
2018-11-02T13:37:31.242Z,2.02
2018-11-02T13:43:55.183Z,0.98
2018-11-02T13:46:42.960Z,0.85
2018-11-02T13:49:31.098Z,1.30
2018-11-02T13:55:37.282Z,0.70
2018-11-02T13:58:10.684Z,1.80
2018-11-02T14:01:05.715Z,1.00
2018-11-02T14:30:31.418Z,3.70
2018-11-02T14:33:25.660Z,1.30
2018-11-02T14:36:09.292Z,1.05
2018-11-02T14:38:59.757Z,1.42
2018-11-02T14:44:57.883Z,1.60
2018-11-02T14:51:54.520Z,1.27
2018-11-02T14:54:58.612Z,1.00
2018-11-02T14:57:44.528Z,1.32
2018-11-02T15:16:05.701Z,1.52
2018-11-02T15:21:35.750Z,0.95
2018-11-02T15:24:51.951Z,1.42
2018-11-02T15:27:26.773Z,1.30
2018-11-02T15:30:02.057Z,1.30
2018-11-02T15:32:33.678Z,1.12
2018-11-02T15:35:34.789Z,1.27
2018-11-02T15:38:14.966Z,0.98
2018-11-02T15:40:47.345Z,0.85
2018-11-02T15:46:50.295Z,1.35
2018-11-02T15:49:23.462Z,1.10
2018-11-02T17:24:18.337Z,4.78
2018-11-02T17:27:11.761Z,2.65
2018-11-02T17:37:09.715Z,2.62
2018-11-02T17:55:40.751Z,3.10
2018-11-02T17:58:27.480Z,4.00
2018-11-02T19:07:02.590Z,3.62
2018-11-02T19:17:23.974Z,3.30
2018-11-02T19:30:19.006Z,4.40
2018-11-02T21:44:45.777Z,2.33
2018-11-02T22:31:16.302Z,3.62
2018-11-02T22:34:00.516Z,4.03
2018-11-02T23:01:48.957Z,3.00
2018-11-02T23:26:23.604Z,3.50
